sensor_id;sensor_type;location;lat;lon;timestamp;pressure;altitude;pressure_sealevel;temperature
75273;BMP280;63869;52.344;16.928;2023-08-06T00:00:18;99928.63;;;15.22
75273;BMP280;63869;52.344;16.928;2023-08-06T00:02:43;99896.31;;;15.22
75273;BMP280;63869;52.344;16.928;2023-08-06T00:05:08;99895.09;;;15.23
75273;BMP280;63869;52.344;16.928;2023-08-06T00:07:34;99893.34;;;15.20
75273;BMP280;63869;52.344;16.928;2023-08-06T00:09:59;99902.91;;;15.21
75273;BMP280;63869;52.344;16.928;2023-08-06T00:12:24;99891.38;;;15.20
75273;BMP280;63869;52.344;16.928;2023-08-06T00:14:50;99899.03;;;15.22
75273;BMP280;63869;52.344;16.928;2023-08-06T00:17:15;99899.28;;;15.24
75273;BMP280;63869;52.344;16.928;2023-08-06T00:19:40;99892.88;;;15.21
75273;BMP280;63869;52.344;16.928;2023-08-06T00:22:06;99886.28;;;15.22
75273;BMP280;63869;52.344;16.928;2023-08-06T00:24:31;99883.13;;;15.24
75273;BMP280;63869;52.344;16.928;2023-08-06T00:26:57;99879.53;;;15.27
75273;BMP280;63869;52.344;16.928;2023-08-06T00:29:22;99880.72;;;15.26
75273;BMP280;63869;52.344;16.928;2023-08-06T00:31:47;99875.66;;;15.28
75273;BMP280;63869;52.344;16.928;2023-08-06T00:34:12;99855.59;;;15.29
75273;BMP280;63869;52.344;16.928;2023-08-06T00:36:37;99858.28;;;15.29
75273;BMP280;63869;52.344;16.928;2023-08-06T00:39:03;99849.44;;;15.28
75273;BMP280;63869;52.344;16.928;2023-08-06T00:41:28;99845.25;;;15.27
75273;BMP280;63869;52.344;16.928;2023-08-06T00:43:53;99837.97;;;15.28
75273;BMP280;63869;52.344;16.928;2023-08-06T00:46:18;99839.41;;;15.29
75273;BMP280;63869;52.344;16.928;2023-08-06T00:48:44;99831.19;;;15.32
75273;BMP280;63869;52.344;16.928;2023-08-06T00:51:09;99820.41;;;15.32
75273;BMP280;63869;52.344;16.928;2023-08-06T00:53:35;99816.22;;;15.31
75273;BMP280;63869;52.344;16.928;2023-08-06T00:56:01;99811.59;;;15.32
75273;BMP280;63869;52.344;16.928;2023-08-06T00:58:26;99803.75;;;15.34
75273;BMP280;63869;52.344;16.928;2023-08-06T01:00:51;99798.22;;;15.37
75273;BMP280;63869;52.344;16.928;2023-08-06T01:03:17;99794.78;;;15.37
75273;BMP280;63869;52.344;16.928;2023-08-06T01:05:42;99775.91;;;15.37
75273;BMP280;63869;52.344;16.928;2023-08-06T01:10:48;99766.34;;;15.36
75273;BMP280;63869;52.344;16.928;2023-08-06T01:16:00;99761.91;;;15.33
75273;BMP280;63869;52.344;16.928;2023-08-06T01:18:26;99750.84;;;15.31
75273;BMP280;63869;52.344;16.928;2023-08-06T01:20:52;99743.22;;;15.29
75273;BMP280;63869;52.344;16.928;2023-08-06T01:23:17;99742.47;;;15.29
75273;BMP280;63869;52.344;16.928;2023-08-06T01:28:11;99740.22;;;15.27
75273;BMP280;63869;52.344;16.928;2023-08-06T01:30:39;99729.63;;;15.24
75273;BMP280;63869;52.344;16.928;2023-08-06T01:33:06;99724.97;;;15.24
75273;BMP280;63869;52.344;16.928;2023-08-06T01:35:34;99722.03;;;15.22
75273;BMP280;63869;52.344;16.928;2023-08-06T01:38:00;99728.88;;;15.23
75273;BMP280;63869;52.344;16.928;2023-08-06T01:40:27;99721.72;;;15.20
75273;BMP280;63869;52.344;16.928;2023-08-06T01:42:53;99700.66;;;15.19
75273;BMP280;63869;52.344;16.928;2023-08-06T01:45:18;99698.41;;;15.17
75273;BMP280;63869;52.344;16.928;2023-08-06T01:47:44;99700.97;;;15.12
75273;BMP280;63869;52.344;16.928;2023-08-06T01:50:09;99698.47;;;15.08
75273;BMP280;63869;52.344;16.928;2023-08-06T01:52:34;99690.69;;;15.10
75273;BMP280;63869;52.344;16.928;2023-08-06T01:54:59;99692.78;;;15.06
75273;BMP280;63869;52.344;16.928;2023-08-06T01:57:24;99676.84;;;15.02
75273;BMP280;63869;52.344;16.928;2023-08-06T01:59:50;99666.97;;;14.99
75273;BMP280;63869;52.344;16.928;2023-08-06T02:02:15;99642.50;;;14.97
75273;BMP280;63869;52.344;16.928;2023-08-06T02:04:40;99639.81;;;14.97
75273;BMP280;63869;52.344;16.928;2023-08-06T02:07:05;99631.72;;;14.97
75273;BMP280;63869;52.344;16.928;2023-08-06T02:09:31;99638.59;;;14.98
75273;BMP280;63869;52.344;16.928;2023-08-06T02:11:56;99637.09;;;14.97
75273;BMP280;63869;52.344;16.928;2023-08-06T02:14:21;99633.34;;;14.95
75273;BMP280;63869;52.344;16.928;2023-08-06T02:16:46;99631.16;;;14.93
75273;BMP280;63869;52.344;16.928;2023-08-06T02:19:11;99620.38;;;14.93
75273;BMP280;63869;52.344;16.928;2023-08-06T02:21:37;99611.06;;;14.94
75273;BMP280;63869;52.344;16.928;2023-08-06T02:24:02;99598.56;;;14.91
75273;BMP280;63869;52.344;16.928;2023-08-06T02:26:27;99597.06;;;14.90
75273;BMP280;63869;52.344;16.928;2023-08-06T02:28:52;99590.47;;;14.91
75273;BMP280;63869;52.344;16.928;2023-08-06T02:31:18;99571.66;;;14.91
75273;BMP280;63869;52.344;16.928;2023-08-06T02:33:43;99580.91;;;14.90
75273;BMP280;63869;52.344;16.928;2023-08-06T02:36:08;99569.69;;;14.92
75273;BMP280;63869;52.344;16.928;2023-08-06T02:38:33;99568.66;;;14.89
75273;BMP280;63869;52.344;16.928;2023-08-06T02:40:58;99551.50;;;14.87
75273;BMP280;63869;52.344;16.928;2023-08-06T02:43:24;99544.94;;;14.88
75273;BMP280;63869;52.344;16.928;2023-08-06T02:45:49;99540.25;;;14.88
75273;BMP280;63869;52.344;16.928;2023-08-06T02:48:14;99539.06;;;14.89
75273;BMP280;63869;52.344;16.928;2023-08-06T02:50:40;99532.00;;;14.92
75273;BMP280;63869;52.344;16.928;2023-08-06T02:53:05;99522.91;;;14.89
75273;BMP280;63869;52.344;16.928;2023-08-06T02:55:31;99514.84;;;14.89
75273;BMP280;63869;52.344;16.928;2023-08-06T02:57:56;99509.47;;;14.89
75273;BMP280;63869;52.344;16.928;2023-08-06T03:00:22;99499.91;;;14.88
75273;BMP280;63869;52.344;16.928;2023-08-06T03:02:47;99497.03;;;14.92
75273;BMP280;63869;52.344;16.928;2023-08-06T03:05:12;99494.78;;;14.90
75273;BMP280;63869;52.344;16.928;2023-08-06T03:07:37;99481.34;;;14.90
75273;BMP280;63869;52.344;16.928;2023-08-06T03:10:03;99472.97;;;14.88
75273;BMP280;63869;52.344;16.928;2023-08-06T03:12:28;99465.09;;;14.85
75273;BMP280;63869;52.344;16.928;2023-08-06T03:14:53;99457.50;;;14.83
75273;BMP280;63869;52.344;16.928;2023-08-06T03:17:18;99453.31;;;14.82
75273;BMP280;63869;52.344;16.928;2023-08-06T03:19:44;99447.94;;;14.82
75273;BMP280;63869;52.344;16.928;2023-08-06T03:22:09;99429.28;;;14.79
75273;BMP280;63869;52.344;16.928;2023-08-06T03:24:34;99429.72;;;14.77
75273;BMP280;63869;52.344;16.928;2023-08-06T03:26:59;99428.00;;;14.74
75273;BMP280;63869;52.344;16.928;2023-08-06T03:29:24;99417.22;;;14.74
75273;BMP280;63869;52.344;16.928;2023-08-06T03:31:50;99414.00;;;14.70
75273;BMP280;63869;52.344;16.928;2023-08-06T03:34:16;99399.06;;;14.69
75273;BMP280;63869;52.344;16.928;2023-08-06T03:36:41;99406.19;;;14.72
75273;BMP280;63869;52.344;16.928;2023-08-06T03:39:07;99394.69;;;14.72
75273;BMP280;63869;52.344;16.928;2023-08-06T03:41:32;99379.28;;;14.72
75273;BMP280;63869;52.344;16.928;2023-08-06T03:43:57;99357.00;;;14.72
75273;BMP280;63869;52.344;16.928;2023-08-06T03:46:22;99376.34;;;14.70
75273;BMP280;63869;52.344;16.928;2023-08-06T03:48:47;99375.59;;;14.69
75273;BMP280;63869;52.344;16.928;2023-08-06T03:51:13;99377.53;;;14.69
75273;BMP280;63869;52.344;16.928;2023-08-06T03:53:38;99390.69;;;14.67
75273;BMP280;63869;52.344;16.928;2023-08-06T03:56:03;99388.19;;;14.63
75273;BMP280;63869;52.344;16.928;2023-08-06T03:58:28;99403.59;;;14.63
75273;BMP280;63869;52.344;16.928;2023-08-06T04:01:00;99389.22;;;14.66
75273;BMP280;63869;52.344;16.928;2023-08-06T04:03:26;99394.88;;;14.68
75273;BMP280;63869;52.344;16.928;2023-08-06T04:05:51;99383.38;;;14.67
75273;BMP280;63869;52.344;16.928;2023-08-06T04:08:16;99382.63;;;14.67
75273;BMP280;63869;52.344;16.928;2023-08-06T04:10:42;99381.44;;;14.68
75273;BMP280;63869;52.344;16.928;2023-08-06T04:13:07;99376.34;;;14.70
75273;BMP280;63869;52.344;16.928;2023-08-06T04:15:33;99360.94;;;14.71
75273;BMP280;63869;52.344;16.928;2023-08-06T04:18:00;99364.09;;;14.69
75273;BMP280;63869;52.344;16.928;2023-08-06T04:20:25;99376.78;;;14.68
75273;BMP280;63869;52.344;16.928;2023-08-06T04:22:50;99362.88;;;14.70
75273;BMP280;63869;52.344;16.928;2023-08-06T04:25:15;99356.94;;;14.66
75273;BMP280;63869;52.344;16.928;2023-08-06T04:27:45;99362.22;;;14.60
75273;BMP280;63869;52.344;16.928;2023-08-06T04:30:11;99371.03;;;14.61
75273;BMP280;63869;52.344;16.928;2023-08-06T04:32:37;99372.22;;;14.60
75273;BMP280;63869;52.344;16.928;2023-08-06T04:35:02;99371.69;;;14.56
75273;BMP280;63869;52.344;16.928;2023-08-06T04:37:27;99370.47;;;14.57
75273;BMP280;63869;52.344;16.928;2023-08-06T04:39:53;99380.97;;;14.55
75273;BMP280;63869;52.344;16.928;2023-08-06T04:42:18;99381.16;;;14.51
75273;BMP280;63869;52.344;16.928;2023-08-06T04:44:43;99390.84;;;14.49
75273;BMP280;63869;52.344;16.928;2023-08-06T04:47:08;99393.75;;;14.45
75273;BMP280;63869;52.344;16.928;2023-08-06T04:49:33;99399.13;;;14.45
75273;BMP280;63869;52.344;16.928;2023-08-06T04:51:59;99404.50;;;14.45
75273;BMP280;63869;52.344;16.928;2023-08-06T04:54:24;99399.88;;;14.46
75273;BMP280;63869;52.344;16.928;2023-08-06T04:56:49;99410.63;;;14.46
75273;BMP280;63869;52.344;16.928;2023-08-06T04:59:14;99400.78;;;14.43
75273;BMP280;63869;52.344;16.928;2023-08-06T05:01:39;99403.47;;;14.43
75273;BMP280;63869;52.344;16.928;2023-08-06T05:04:05;99394.13;;;14.38
75273;BMP280;63869;52.344;16.928;2023-08-06T05:06:31;99389.84;;;14.31
75273;BMP280;63869;52.344;16.928;2023-08-06T05:08:56;99387.47;;;14.34
75273;BMP280;63869;52.344;16.928;2023-08-06T05:11:21;99388.94;;;14.35
75273;BMP280;63869;52.344;16.928;2023-08-06T05:13:47;99368.91;;;14.36
75273;BMP280;63869;52.344;16.928;2023-08-06T05:16:12;99345.91;;;14.35
75273;BMP280;63869;52.344;16.928;2023-08-06T05:18:37;99331.53;;;14.38
75273;BMP280;63869;52.344;16.928;2023-08-06T05:21:03;99346.47;;;14.39
75273;BMP280;63869;52.344;16.928;2023-08-06T05:23:28;99350.16;;;14.41
75273;BMP280;63869;52.344;16.928;2023-08-06T05:25:54;99345.81;;;14.44
75273;BMP280;63869;52.344;16.928;2023-08-06T05:28:19;99342.38;;;14.43
75273;BMP280;63869;52.344;16.928;2023-08-06T05:30:44;99328.84;;;14.38
75273;BMP280;63869;52.344;16.928;2023-08-06T05:33:09;99320.25;;;14.34
75273;BMP280;63869;52.344;16.928;2023-08-06T05:35:35;99340.97;;;14.33
75273;BMP280;63869;52.344;16.928;2023-08-06T05:38:00;99351.16;;;14.29
75273;BMP280;63869;52.344;16.928;2023-08-06T05:40:25;99369.44;;;14.25
75273;BMP280;63869;52.344;16.928;2023-08-06T05:42:52;99379.34;;;14.19
75273;BMP280;63869;52.344;16.928;2023-08-06T05:45:17;99374.59;;;14.14
75273;BMP280;63869;52.344;16.928;2023-08-06T05:47:43;99374.81;;;14.10
75273;BMP280;63869;52.344;16.928;2023-08-06T05:50:09;99362.56;;;14.09
75273;BMP280;63869;52.344;16.928;2023-08-06T05:52:34;99336.44;;;14.10
75273;BMP280;63869;52.344;16.928;2023-08-06T05:54:59;99315.69;;;14.10
75273;BMP280;63869;52.344;16.928;2023-08-06T05:57:24;99311.50;;;14.09
75273;BMP280;63869;52.344;16.928;2023-08-06T05:59:49;99314.38;;;14.06
75273;BMP280;63869;52.344;16.928;2023-08-06T06:02:15;99318.53;;;14.07
75273;BMP280;63869;52.344;16.928;2023-08-06T06:04:41;99304.19;;;14.10
75273;BMP280;63869;52.344;16.928;2023-08-06T06:07:06;99302.69;;;14.09
75273;BMP280;63869;52.344;16.928;2023-08-06T06:09:34;99299.56;;;14.10
75273;BMP280;63869;52.344;16.928;2023-08-06T06:11:59;99295.63;;;14.11
75273;BMP280;63869;52.344;16.928;2023-08-06T06:14:25;99298.81;;;14.10
75273;BMP280;63869;52.344;16.928;2023-08-06T06:16:51;99287.78;;;14.08
75273;BMP280;63869;52.344;16.928;2023-08-06T06:19:18;99262.09;;;14.07
75273;BMP280;63869;52.344;16.928;2023-08-06T06:21:43;99266.72;;;14.06
75273;BMP280;63869;52.344;16.928;2023-08-06T06:24:08;99254.78;;;14.07
75273;BMP280;63869;52.344;16.928;2023-08-06T06:26:34;99252.84;;;14.08
75273;BMP280;63869;52.344;16.928;2023-08-06T06:28:59;99258.00;;;14.11
75273;BMP280;63869;52.344;16.928;2023-08-06T06:31:25;99249.19;;;14.11
75273;BMP280;63869;52.344;16.928;2023-08-06T06:33:50;99242.16;;;14.13
75273;BMP280;63869;52.344;16.928;2023-08-06T06:36:16;99235.97;;;14.07
75273;BMP280;63869;52.344;16.928;2023-08-06T06:38:41;99229.66;;;14.10
75273;BMP280;63869;52.344;16.928;2023-08-06T06:41:06;99224.56;;;14.12
75273;BMP280;63869;52.344;16.928;2023-08-06T06:43:31;99224.28;;;14.10
75273;BMP280;63869;52.344;16.928;2023-08-06T06:45:57;99223.06;;;14.11
75273;BMP280;63869;52.344;16.928;2023-08-06T06:48:26;99214.75;;;14.09
75273;BMP280;63869;52.344;16.928;2023-08-06T06:50:52;99220.66;;;14.13
75273;BMP280;63869;52.344;16.928;2023-08-06T06:53:17;99221.41;;;14.14
75273;BMP280;63869;52.344;16.928;2023-08-06T06:55:42;99224.38;;;14.16
75273;BMP280;63869;52.344;16.928;2023-08-06T06:58:07;99207.22;;;14.13
75273;BMP280;63869;52.344;16.928;2023-08-06T07:00:32;99215.56;;;14.15
75273;BMP280;63869;52.344;16.928;2023-08-06T07:03:00;99207.00;;;14.17
75273;BMP280;63869;52.344;16.928;2023-08-06T07:05:25;99199.44;;;14.15
75273;BMP280;63869;52.344;16.928;2023-08-06T07:07:51;99188.19;;;14.17
75273;BMP280;63869;52.344;16.928;2023-08-06T07:10:17;99194.81;;;14.16
75273;BMP280;63869;52.344;16.928;2023-08-06T07:12:42;99195.81;;;14.18
75273;BMP280;63869;52.344;16.928;2023-08-06T07:15:07;99196.63;;;14.24
75273;BMP280;63869;52.344;16.928;2023-08-06T07:17:32;99196.94;;;14.26
75273;BMP280;63869;52.344;16.928;2023-08-06T07:19:58;99185.44;;;14.26
75273;BMP280;63869;52.344;16.928;2023-08-06T07:22:23;99194.22;;;14.26
75273;BMP280;63869;52.344;16.928;2023-08-06T07:24:48;99190.28;;;14.22
75273;BMP280;63869;52.344;16.928;2023-08-06T07:27:13;99186.25;;;14.17
75273;BMP280;63869;52.344;16.928;2023-08-06T07:29:39;99185.06;;;14.18
75273;BMP280;63869;52.344;16.928;2023-08-06T07:32:05;99194.63;;;14.19
75273;BMP280;63869;52.344;16.928;2023-08-06T07:34:31;99198.06;;;14.20
75273;BMP280;63869;52.344;16.928;2023-08-06T07:36:56;99185.06;;;14.18
75273;BMP280;63869;52.344;16.928;2023-08-06T07:39:22;99188.78;;;14.21
75273;BMP280;63869;52.344;16.928;2023-08-06T07:41:48;99182.66;;;14.20
75273;BMP280;63869;52.344;16.928;2023-08-06T07:44:13;99189.03;;;14.23
75273;BMP280;63869;52.344;16.928;2023-08-06T07:46:39;99174.69;;;14.26
75273;BMP280;63869;52.344;16.928;2023-08-06T07:49:05;99183.66;;;14.23
75273;BMP280;63869;52.344;16.928;2023-08-06T07:51:30;99179.03;;;14.23
75273;BMP280;63869;52.344;16.928;2023-08-06T07:53:55;99180.97;;;14.23
75273;BMP280;63869;52.344;16.928;2023-08-06T07:56:20;99172.56;;;14.15
75273;BMP280;63869;52.344;16.928;2023-08-06T07:58:46;99157.63;;;14.14
75273;BMP280;63869;52.344;16.928;2023-08-06T08:01:11;99153.00;;;14.15
75273;BMP280;63869;52.344;16.928;2023-08-06T08:03:37;99151.25;;;14.12
75273;BMP280;63869;52.344;16.928;2023-08-06T08:06:03;99154.66;;;14.12
75273;BMP280;63869;52.344;16.928;2023-08-06T08:08:30;99157.91;;;14.16
75273;BMP280;63869;52.344;16.928;2023-08-06T08:10:57;99165.53;;;14.18
75273;BMP280;63869;52.344;16.928;2023-08-06T08:13:24;99185.34;;;14.20
75273;BMP280;63869;52.344;16.928;2023-08-06T08:15:49;99183.66;;;14.23
75273;BMP280;63869;52.344;16.928;2023-08-06T08:18:14;99201.84;;;14.28
75273;BMP280;63869;52.344;16.928;2023-08-06T08:20:40;99184.97;;;14.27
75273;BMP280;63869;52.344;16.928;2023-08-06T08:23:05;99179.09;;;14.29
75273;BMP280;63869;52.344;16.928;2023-08-06T08:25:31;99157.59;;;14.29
75273;BMP280;63869;52.344;16.928;2023-08-06T08:27:56;99151.50;;;14.28
75273;BMP280;63869;52.344;16.928;2023-08-06T08:30:22;99138.59;;;14.32
75273;BMP280;63869;52.344;16.928;2023-08-06T08:32:47;99129.78;;;14.32
75273;BMP280;63869;52.344;16.928;2023-08-06T08:35:13;99104.25;;;14.22
75273;BMP280;63869;52.344;16.928;2023-08-06T08:37:38;99100.69;;;14.30
75273;BMP280;63869;52.344;16.928;2023-08-06T08:40:05;99089.47;;;14.32
75273;BMP280;63869;52.344;16.928;2023-08-06T08:42:31;99106.78;;;14.31
75273;BMP280;63869;52.344;16.928;2023-08-06T08:44:57;99092.59;;;14.30
75273;BMP280;63869;52.344;16.928;2023-08-06T08:47:23;99092.59;;;14.30
75273;BMP280;63869;52.344;16.928;2023-08-06T08:49:49;99083.81;;;14.30
75273;BMP280;63869;52.344;16.928;2023-08-06T08:52:18;99087.44;;;14.27
75273;BMP280;63869;52.344;16.928;2023-08-06T08:54:43;99089.41;;;14.26
75273;BMP280;63869;52.344;16.928;2023-08-06T08:57:10;99097.47;;;14.26
75273;BMP280;63869;52.344;16.928;2023-08-06T08:59:35;99094.50;;;14.24
75273;BMP280;63869;52.344;16.928;2023-08-06T09:02:01;99087.44;;;14.27
75273;BMP280;63869;52.344;16.928;2023-08-06T09:04:30;99088.72;;;14.31
75273;BMP280;63869;52.344;16.928;2023-08-06T09:07:01;99086.03;;;14.31
75273;BMP280;63869;52.344;16.928;2023-08-06T09:09:31;99084.53;;;14.30
75273;BMP280;63869;52.344;16.928;2023-08-06T09:12:00;99071.69;;;14.35
75273;BMP280;63869;52.344;16.928;2023-08-06T09:14:26;99059.50;;;14.39
75273;BMP280;63869;52.344;16.928;2023-08-06T09:16:52;99051.63;;;14.36
75273;BMP280;63869;52.344;16.928;2023-08-06T09:19:17;99044.56;;;14.38
75273;BMP280;63869;52.344;16.928;2023-08-06T09:21:43;99041.16;;;14.38
75273;BMP280;63869;52.344;16.928;2023-08-06T09:24:12;99025.81;;;14.44
75273;BMP280;63869;52.344;16.928;2023-08-06T09:26:37;99022.97;;;14.53
75273;BMP280;63869;52.344;16.928;2023-08-06T09:29:06;73410.59;;;-146.09
75273;BMP280;63869;52.344;16.928;2023-08-06T09:31:40;73410.59;;;-146.09
75273;BMP280;63869;52.344;16.928;2023-08-06T09:34:06;73410.59;;;-146.09
75273;BMP280;63869;52.344;16.928;2023-08-06T09:36:35;73410.59;;;-146.09
75273;BMP280;63869;52.344;16.928;2023-08-06T09:39:07;73410.59;;;-146.09
75273;BMP280;63869;52.344;16.928;2023-08-06T09:41:37;73410.59;;;-146.09
75273;BMP280;63869;52.344;16.928;2023-08-06T09:44:02;73410.59;;;-146.09
75273;BMP280;63869;52.344;16.928;2023-08-06T09:46:28;73410.59;;;-146.09
75273;BMP280;63869;52.344;16.928;2023-08-06T09:48:53;73410.59;;;-146.09
75273;BMP280;63869;52.344;16.928;2023-08-06T09:51:18;73410.59;;;-146.09
75273;BMP280;63869;52.344;16.928;2023-08-06T09:53:44;73410.59;;;-146.09
75273;BMP280;63869;52.344;16.928;2023-08-06T09:56:09;73410.59;;;-146.09
75273;BMP280;63869;52.344;16.928;2023-08-06T09:58:36;73410.59;;;-146.09
75273;BMP280;63869;52.344;16.928;2023-08-06T10:01:01;73410.59;;;-146.09
75273;BMP280;63869;52.344;16.928;2023-08-06T10:03:27;73410.59;;;-146.09
75273;BMP280;63869;52.344;16.928;2023-08-06T10:05:55;73410.59;;;-146.09
75273;BMP280;63869;52.344;16.928;2023-08-06T10:08:20;73410.59;;;-146.09
75273;BMP280;63869;52.344;16.928;2023-08-06T10:10:45;73410.59;;;-146.09
75273;BMP280;63869;52.344;16.928;2023-08-06T10:13:11;73410.59;;;-146.09
75273;BMP280;63869;52.344;16.928;2023-08-06T10:15:37;73410.59;;;-146.09
75273;BMP280;63869;52.344;16.928;2023-08-06T10:18:03;73410.59;;;-146.09
75273;BMP280;63869;52.344;16.928;2023-08-06T10:20:34;73410.59;;;-146.09
75273;BMP280;63869;52.344;16.928;2023-08-06T10:23:00;73410.59;;;-146.09
75273;BMP280;63869;52.344;16.928;2023-08-06T10:25:25;73410.59;;;-146.09
75273;BMP280;63869;52.344;16.928;2023-08-06T10:27:53;73410.59;;;-146.09
75273;BMP280;63869;52.344;16.928;2023-08-06T10:32:49;73410.59;;;-146.09
75273;BMP280;63869;52.344;16.928;2023-08-06T10:35:27;73410.59;;;-146.09
75273;BMP280;63869;52.344;16.928;2023-08-06T10:37:53;73410.59;;;-146.09
75273;BMP280;63869;52.344;16.928;2023-08-06T10:40:23;73410.59;;;-146.09
75273;BMP280;63869;52.344;16.928;2023-08-06T10:42:51;73410.59;;;-146.09
75273;BMP280;63869;52.344;16.928;2023-08-06T10:45:17;73410.59;;;-146.09
75273;BMP280;63869;52.344;16.928;2023-08-06T10:47:43;73410.59;;;-146.09
75273;BMP280;63869;52.344;16.928;2023-08-06T10:50:11;73410.59;;;-146.09
75273;BMP280;63869;52.344;16.928;2023-08-06T10:52:36;73410.59;;;-146.09
75273;BMP280;63869;52.344;16.928;2023-08-06T10:55:03;73410.59;;;-146.09
75273;BMP280;63869;52.344;16.928;2023-08-06T10:57:31;73410.59;;;-146.09
75273;BMP280;63869;52.344;16.928;2023-08-06T10:59:56;73410.59;;;-146.09
75273;BMP280;63869;52.344;16.928;2023-08-06T11:02:22;73410.59;;;-146.09
75273;BMP280;63869;52.344;16.928;2023-08-06T11:04:48;73410.59;;;-146.09
75273;BMP280;63869;52.344;16.928;2023-08-06T11:07:13;73410.59;;;-146.09
75273;BMP280;63869;52.344;16.928;2023-08-06T11:09:39;73410.59;;;-146.09
75273;BMP280;63869;52.344;16.928;2023-08-06T11:12:12;73410.59;;;-146.09
75273;BMP280;63869;52.344;16.928;2023-08-06T11:14:49;73410.59;;;-146.09
75273;BMP280;63869;52.344;16.928;2023-08-06T11:17:15;73410.59;;;-146.09
75273;BMP280;63869;52.344;16.928;2023-08-06T11:19:40;73410.59;;;-146.09
75273;BMP280;63869;52.344;16.928;2023-08-06T11:22:06;73410.59;;;-146.09
75273;BMP280;63869;52.344;16.928;2023-08-06T11:24:31;73410.59;;;-146.09
75273;BMP280;63869;52.344;16.928;2023-08-06T11:26:56;73410.59;;;-146.09
75273;BMP280;63869;52.344;16.928;2023-08-06T11:29:23;73410.59;;;-146.09
75273;BMP280;63869;52.344;16.928;2023-08-06T11:31:49;73410.59;;;-146.09
75273;BMP280;63869;52.344;16.928;2023-08-06T11:34:14;73410.59;;;-146.09
75273;BMP280;63869;52.344;16.928;2023-08-06T11:36:40;73410.59;;;-146.09
75273;BMP280;63869;52.344;16.928;2023-08-06T11:39:05;73410.59;;;-146.09
75273;BMP280;63869;52.344;16.928;2023-08-06T11:41:33;73410.59;;;-146.09
75273;BMP280;63869;52.344;16.928;2023-08-06T11:44:01;73410.59;;;-146.09
75273;BMP280;63869;52.344;16.928;2023-08-06T11:46:26;73410.59;;;-146.09
75273;BMP280;63869;52.344;16.928;2023-08-06T11:48:55;73410.59;;;-146.09
75273;BMP280;63869;52.344;16.928;2023-08-06T11:51:27;73410.59;;;-146.09
75273;BMP280;63869;52.344;16.928;2023-08-06T11:53:57;73410.59;;;-146.09
75273;BMP280;63869;52.344;16.928;2023-08-06T11:56:23;73410.59;;;-146.09
75273;BMP280;63869;52.344;16.928;2023-08-06T11:58:48;73410.59;;;-146.09
75273;BMP280;63869;52.344;16.928;2023-08-06T12:01:14;73410.59;;;-146.09
75273;BMP280;63869;52.344;16.928;2023-08-06T12:03:39;73410.59;;;-146.09
75273;BMP280;63869;52.344;16.928;2023-08-06T12:06:04;73410.59;;;-146.09
75273;BMP280;63869;52.344;16.928;2023-08-06T12:08:30;73410.59;;;-146.09
75273;BMP280;63869;52.344;16.928;2023-08-06T12:10:55;73410.59;;;-146.09
75273;BMP280;63869;52.344;16.928;2023-08-06T12:13:21;73410.59;;;-146.09
75273;BMP280;63869;52.344;16.928;2023-08-06T12:15:47;73410.59;;;-146.09
75273;BMP280;63869;52.344;16.928;2023-08-06T12:18:12;73410.59;;;-146.09
75273;BMP280;63869;52.344;16.928;2023-08-06T12:20:38;73410.59;;;-146.09
75273;BMP280;63869;52.344;16.928;2023-08-06T12:23:04;73410.59;;;-146.09
75273;BMP280;63869;52.344;16.928;2023-08-06T12:25:29;73410.59;;;-146.09
75273;BMP280;63869;52.344;16.928;2023-08-06T12:27:54;73410.59;;;-146.09
75273;BMP280;63869;52.344;16.928;2023-08-06T12:30:19;73410.59;;;-146.09
75273;BMP280;63869;52.344;16.928;2023-08-06T12:32:46;73410.59;;;-146.09
75273;BMP280;63869;52.344;16.928;2023-08-06T12:35:11;73410.59;;;-146.09
75273;BMP280;63869;52.344;16.928;2023-08-06T12:37:36;73410.59;;;-146.09
75273;BMP280;63869;52.344;16.928;2023-08-06T12:40:03;73410.59;;;-146.09
75273;BMP280;63869;52.344;16.928;2023-08-06T12:42:31;73410.59;;;-146.09
75273;BMP280;63869;52.344;16.928;2023-08-06T12:44:57;73410.59;;;-146.09
75273;BMP280;63869;52.344;16.928;2023-08-06T12:47:23;73410.59;;;-146.09
75273;BMP280;63869;52.344;16.928;2023-08-06T12:49:49;73410.59;;;-146.09
75273;BMP280;63869;52.344;16.928;2023-08-06T12:52:14;73410.59;;;-146.09
75273;BMP280;63869;52.344;16.928;2023-08-06T12:54:41;73410.59;;;-146.09
75273;BMP280;63869;52.344;16.928;2023-08-06T12:57:07;73410.59;;;-146.09
75273;BMP280;63869;52.344;16.928;2023-08-06T12:59:32;73410.59;;;-146.09
75273;BMP280;63869;52.344;16.928;2023-08-06T13:02:02;73410.59;;;-146.09
75273;BMP280;63869;52.344;16.928;2023-08-06T13:04:28;73410.59;;;-146.09
75273;BMP280;63869;52.344;16.928;2023-08-06T13:06:54;73410.59;;;-146.09
75273;BMP280;63869;52.344;16.928;2023-08-06T13:09:20;73410.59;;;-146.09
75273;BMP280;63869;52.344;16.928;2023-08-06T13:11:45;73410.59;;;-146.09
75273;BMP280;63869;52.344;16.928;2023-08-06T13:14:12;73410.59;;;-146.09
75273;BMP280;63869;52.344;16.928;2023-08-06T13:16:38;73410.59;;;-146.09
75273;BMP280;63869;52.344;16.928;2023-08-06T13:19:03;73410.59;;;-146.09
75273;BMP280;63869;52.344;16.928;2023-08-06T13:22:03;73410.59;;;-146.09
75273;BMP280;63869;52.344;16.928;2023-08-06T13:24:20;73410.59;;;-146.09
75273;BMP280;63869;52.344;16.928;2023-08-06T13:26:46;73410.59;;;-146.09
75273;BMP280;63869;52.344;16.928;2023-08-06T13:29:13;73410.59;;;-146.09
75273;BMP280;63869;52.344;16.928;2023-08-06T13:31:38;73410.59;;;-146.09
75273;BMP280;63869;52.344;16.928;2023-08-06T13:34:03;73410.59;;;-146.09
75273;BMP280;63869;52.344;16.928;2023-08-06T13:36:29;73410.59;;;-146.09
75273;BMP280;63869;52.344;16.928;2023-08-06T13:38:54;73410.59;;;-146.09
75273;BMP280;63869;52.344;16.928;2023-08-06T13:41:19;73410.59;;;-146.09
75273;BMP280;63869;52.344;16.928;2023-08-06T13:43:45;73410.59;;;-146.09
75273;BMP280;63869;52.344;16.928;2023-08-06T13:46:11;73410.59;;;-146.09
75273;BMP280;63869;52.344;16.928;2023-08-06T13:48:44;73410.59;;;-146.09
75273;BMP280;63869;52.344;16.928;2023-08-06T13:51:09;73410.59;;;-146.09